Time;durP1;ratioP1;P1;durP2;ratioP2;P2;SDS_P1;SDS_P2;PMS_P1;PMS_P2;Temp;Humidity;BMP_temperature;BMP_pressure;BME280_temperature;BME280_humidity;BME280_pressure;Samples;Min_cycle;Max_cycle;Signal;HPM_P1;HPM_P2
2023/10/02 00:02:41;;;;;;;9.55;5.10;;;;;;;;;;6277467;28;20119;-80
2023/10/02 00:05:52;;;;;;;11.13;5.00;;;;;;;;;;6283945;28;20071;-81
2023/10/02 00:08:53;;;;;;;10.88;5.70;;;;;;;;;;6275264;28;20036;-81
2023/10/02 00:12:01;;;;;;;10.63;5.30;;;;;;;;;;6271143;28;20211;-81
2023/10/02 00:15:12;;;;;;;12.05;5.40;;;;;;;;;;6281522;28;20048;-78
2023/10/02 00:18:18;;;;;;;10.90;5.20;;;;;;;;;;6273581;28;20040;-78
2023/10/02 00:21:22;;;;;;;9.63;5.10;;;;;;;;;;6270172;28;20100;-78
2023/10/02 00:24:25;;;;;;;10.30;4.97;;;;;;;;;;6265796;28;20044;-81
2023/10/02 00:27:28;;;;;;;11.82;4.85;;;;;;;;;;6275502;28;20050;-80
2023/10/02 00:30:36;;;;;;;9.48;4.53;;;;;;;;;;6272376;28;20051;-76
2023/10/02 00:33:38;;;;;;;9.90;5.30;;;;;;;;;;6269555;28;20056;-77
2023/10/02 00:36:40;;;;;;;10.73;5.10;;;;;;;;;;6273196;28;20045;-80
2023/10/02 00:39:47;;;;;;;13.25;5.95;;;;;;;;;;6271361;28;20048;-81
2023/10/02 00:42:56;;;;;;;15.20;6.40;;;;;;;;;;6277188;28;20040;-82
2023/10/02 00:46:01;;;;;;;11.73;5.43;;;;;;;;;;6278263;28;20437;-78
2023/10/02 00:49:23;;;;;;;12.00;5.75;;;;;;;;;;6255315;28;20041;-79
2023/10/02 00:52:24;;;;;;;12.45;5.55;;;;;;;;;;6278873;28;20056;-80
2023/10/02 00:55:30;;;;;;;13.55;5.75;;;;;;;;;;6269997;28;20078;-81
2023/10/02 00:58:32;;;;;;;14.45;6.38;;;;;;;;;;6273168;28;20036;-80
2023/10/02 01:01:35;;;;;;;14.70;6.03;;;;;;;;;;6271258;28;20056;-78
2023/10/02 01:04:37;;;;;;;12.93;5.38;;;;;;;;;;6271943;28;20041;-81
2023/10/02 01:07:40;;;;;;;11.93;5.85;;;;;;;;;;6275220;28;20044;-79
2023/10/02 01:10:42;;;;;;;11.15;5.60;;;;;;;;;;6274645;28;20038;-78
2023/10/02 01:13:44;;;;;;;11.93;5.50;;;;;;;;;;6271579;28;20498;-79
2023/10/02 01:16:50;;;;;;;12.60;5.78;;;;;;;;;;6262170;28;20047;-80
2023/10/02 01:19:53;;;;;;;9.98;5.53;;;;;;;;;;6252440;28;20078;-77
2023/10/02 01:23:11;;;;;;;10.77;5.25;;;;;;;;;;6286789;28;20050;-80
2023/10/02 01:26:16;;;;;;;9.77;5.47;;;;;;;;;;6280340;28;20178;-78
2023/10/02 01:29:18;;;;;;;11.93;5.40;;;;;;;;;;6269869;28;20597;-79
2023/10/02 01:32:20;;;;;;;11.68;5.00;;;;;;;;;;6268060;28;20037;-78
2023/10/02 01:35:22;;;;;;;13.10;5.60;;;;;;;;;;6270374;28;20037;-79
2023/10/02 01:38:29;;;;;;;12.88;5.47;;;;;;;;;;6262466;28;20061;-79
2023/10/02 01:41:32;;;;;;;10.95;5.10;;;;;;;;;;6266521;28;20040;-80
2023/10/02 01:44:54;;;;;;;12.55;5.53;;;;;;;;;;6256681;28;20036;-81
2023/10/02 01:47:55;;;;;;;13.20;5.53;;;;;;;;;;6273297;28;20048;-77
2023/10/02 01:51:15;;;;;;;23.08;7.38;;;;;;;;;;6272272;28;20086;-81
2023/10/02 01:54:19;;;;;;;19.50;7.47;;;;;;;;;;6267363;28;20525;-81
2023/10/02 01:57:24;;;;;;;17.88;6.63;;;;;;;;;;6271291;28;20117;-79
2023/10/02 02:00:27;;;;;;;15.52;6.45;;;;;;;;;;6261238;28;20049;-77
2023/10/02 02:03:29;;;;;;;17.15;6.75;;;;;;;;;;6273541;28;20057;-80
2023/10/02 02:06:31;;;;;;;20.05;6.85;;;;;;;;;;6253606;28;20053;-77
2023/10/02 02:09:41;;;;;;;16.92;6.90;;;;;;;;;;6280514;28;20045;-81
2023/10/02 02:12:55;;;;;;;14.27;5.90;;;;;;;;;;6257823;28;20124;-80
2023/10/02 02:16:07;;;;;;;12.77;5.55;;;;;;;;;;6280545;28;20050;-81
2023/10/02 02:19:12;;;;;;;13.73;6.00;;;;;;;;;;6271895;28;20051;-79
2023/10/02 02:22:26;;;;;;;11.95;5.60;;;;;;;;;;6277864;28;20186;-77
2023/10/02 02:25:28;;;;;;;13.82;5.85;;;;;;;;;;6273974;28;20049;-82
2023/10/02 02:28:30;;;;;;;14.82;5.85;;;;;;;;;;6273976;28;20048;-81
2023/10/02 02:31:32;;;;;;;13.60;5.72;;;;;;;;;;6293857;28;20052;-80
2023/10/02 02:34:36;;;;;;;13.50;5.18;;;;;;;;;;6258591;28;20040;-81
2023/10/02 02:37:41;;;;;;;11.35;5.07;;;;;;;;;;6270301;28;20071;-81
2023/10/02 02:40:43;;;;;;;10.23;5.32;;;;;;;;;;6280023;28;20041;-82
2023/10/02 02:43:47;;;;;;;12.90;5.97;;;;;;;;;;6276792;28;20122;-76
2023/10/02 02:46:53;;;;;;;13.48;5.57;;;;;;;;;;6260041;28;20037;-82
2023/10/02 02:49:58;;;;;;;12.88;5.55;;;;;;;;;;6269642;28;21664;-81
2023/10/02 02:56:23;;;;;;;14.55;5.80;;;;;;;;;;6271530;28;20052;-80
2023/10/02 02:59:28;;;;;;;12.77;5.65;;;;;;;;;;6266512;28;20041;-82
2023/10/02 03:02:31;;;;;;;18.10;6.90;;;;;;;;;;6269814;28;20057;-79
2023/10/02 03:05:40;;;;;;;19.20;6.88;;;;;;;;;;6269058;28;20079;-77
2023/10/02 03:08:44;;;;;;;15.07;6.38;;;;;;;;;;6259187;28;20060;-80
2023/10/02 03:11:46;;;;;;;18.48;7.00;;;;;;;;;;6272892;28;20056;-77
2023/10/02 03:14:49;;;;;;;22.42;8.05;;;;;;;;;;6259645;28;20041;-81
2023/10/02 03:17:51;;;;;;;19.40;7.05;;;;;;;;;;6260081;28;20041;-78
2023/10/02 03:20:53;;;;;;;16.50;6.95;;;;;;;;;;6270674;28;20068;-80
2023/10/02 03:23:58;;;;;;;24.30;8.52;;;;;;;;;;6275067;28;20044;-79
2023/10/02 03:27:02;;;;;;;22.65;7.30;;;;;;;;;;6273806;28;20501;-82
2023/10/02 03:30:05;;;;;;;19.92;6.50;;;;;;;;;;6279612;28;20053;-81
2023/10/02 03:33:22;;;;;;;20.58;7.03;;;;;;;;;;6274403;28;20126;-80
2023/10/02 03:36:24;;;;;;;21.77;7.53;;;;;;;;;;6271178;28;20314;-79
2023/10/02 03:43:18;;;;;;;17.13;6.43;;;;;;;;;;6255998;28;20110;-80
2023/10/02 03:46:23;;;;;;;17.02;6.68;;;;;;;;;;6279429;28;20044;-81
2023/10/02 03:49:25;;;;;;;17.00;6.60;;;;;;;;;;6273235;28;20045;-79
2023/10/02 03:52:29;;;;;;;14.50;6.15;;;;;;;;;;6265231;28;20053;-81
2023/10/02 03:55:33;;;;;;;17.20;6.78;;;;;;;;;;6272888;28;20380;-81
2023/10/02 03:58:38;;;;;;;15.20;6.50;;;;;;;;;;6275271;28;20503;-80
2023/10/02 04:01:40;;;;;;;19.77;6.80;;;;;;;;;;6269398;28;20045;-80
2023/10/02 04:04:42;;;;;;;15.93;6.43;;;;;;;;;;6252103;28;21349;-79
2023/10/02 04:07:47;;;;;;;15.63;6.70;;;;;;;;;;6276395;28;20035;-80
2023/10/02 04:10:57;;;;;;;19.58;7.57;;;;;;;;;;6271480;28;20120;-79
2023/10/02 04:14:01;;;;;;;18.27;7.00;;;;;;;;;;6268508;28;20052;-79
2023/10/02 04:20:27;;;;;;;19.20;7.03;;;;;;;;;;6266149;28;20052;-78
2023/10/02 04:23:29;;;;;;;20.33;7.03;;;;;;;;;;6258454;28;20091;-77
2023/10/02 04:26:33;;;;;;;19.35;7.25;;;;;;;;;;6274104;28;20049;-79
2023/10/02 04:29:38;;;;;;;14.45;6.18;;;;;;;;;;6269898;28;20045;-77
2023/10/02 04:32:49;;;;;;;23.38;7.47;;;;;;;;;;6268179;28;20052;-79
2023/10/02 04:35:57;;;;;;;22.90;7.50;;;;;;;;;;6264480;28;20052;-78
2023/10/02 04:38:58;;;;;;;31.67;13.23;;;;;;;;;;6259050;28;20044;-81
2023/10/02 04:42:19;;;;;;;23.90;11.35;;;;;;;;;;6272376;28;20048;-79
2023/10/02 04:45:21;;;;;;;19.77;8.45;;;;;;;;;;6260521;28;20045;-81
2023/10/02 04:48:27;;;;;;;16.55;7.22;;;;;;;;;;6273170;28;20040;-79
2023/10/02 04:51:29;;;;;;;16.02;6.85;;;;;;;;;;6269172;28;20051;-78
2023/10/02 04:54:31;;;;;;;15.20;6.18;;;;;;;;;;6265802;28;20037;-79
2023/10/02 04:57:34;;;;;;;19.02;7.03;;;;;;;;;;6273485;28;20048;-77
2023/10/02 05:00:39;;;;;;;19.70;7.18;;;;;;;;;;6274979;28;20040;-78
2023/10/02 05:03:49;;;;;;;17.45;6.88;;;;;;;;;;6266630;28;20036;-79
2023/10/02 05:06:55;;;;;;;19.50;7.78;;;;;;;;;;6263544;28;20045;-79
2023/10/02 05:09:57;;;;;;;16.73;6.85;;;;;;;;;;6271582;28;20093;-79
2023/10/02 05:12:59;;;;;;;13.02;6.43;;;;;;;;;;6269395;28;20615;-80
2023/10/02 05:16:12;;;;;;;14.43;6.47;;;;;;;;;;6249320;28;20410;-82
2023/10/02 05:19:15;;;;;;;12.30;6.03;;;;;;;;;;6279715;28;20041;-80
2023/10/02 05:22:17;;;;;;;13.07;6.40;;;;;;;;;;6277409;28;20055;-77
2023/10/02 05:25:18;;;;;;;14.43;6.57;;;;;;;;;;6273750;28;20049;-79
2023/10/02 05:28:22;;;;;;;17.20;6.13;;;;;;;;;;6268515;28;20040;-81
2023/10/02 05:31:24;;;;;;;17.50;6.95;;;;;;;;;;6277794;28;20055;-76
2023/10/02 05:34:28;;;;;;;17.50;6.55;;;;;;;;;;6266807;28;20052;-79
2023/10/02 05:37:41;;;;;;;17.63;6.82;;;;;;;;;;6268213;28;20040;-78
2023/10/02 05:40:47;;;;;;;18.15;7.10;;;;;;;;;;6262654;28;20087;-80
2023/10/02 05:43:55;;;;;;;17.95;7.35;;;;;;;;;;6276330;28;20136;-80
2023/10/02 05:47:06;;;;;;;18.02;7.72;;;;;;;;;;6255875;28;20059;-81
2023/10/02 05:50:10;;;;;;;17.65;6.68;;;;;;;;;;6269459;28;20039;-80
2023/10/02 05:53:12;;;;;;;19.13;7.38;;;;;;;;;;6257256;28;20120;-81
2023/10/02 05:56:14;;;;;;;19.02;7.75;;;;;;;;;;6260151;28;20053;-80
2023/10/02 05:59:24;;;;;;;16.77;6.97;;;;;;;;;;6245679;28;20040;-80
2023/10/02 06:02:27;;;;;;;16.83;6.82;;;;;;;;;;6228714;28;20060;-82
2023/10/02 06:05:29;;;;;;;16.13;6.43;;;;;;;;;;6242303;28;20038;-80
2023/10/02 06:08:33;;;;;;;17.88;7.03;;;;;;;;;;6244366;28;22267;-79
2023/10/02 06:11:59;;;;;;;19.23;8.45;;;;;;;;;;6232286;28;20053;-79
2023/10/02 06:14:56;;;;;;;19.55;7.22;;;;;;;;;;6247965;28;20056;-79
2023/10/02 06:17:58;;;;;;;23.02;8.40;;;;;;;;;;6243722;28;20438;-81
2023/10/02 06:21:01;;;;;;;18.40;7.80;;;;;;;;;;6239753;28;20049;-82
2023/10/02 06:24:04;;;;;;;22.25;8.25;;;;;;;;;;6253377;28;20037;-79
2023/10/02 06:27:12;;;;;;;18.70;7.25;;;;;;;;;;6247621;28;20065;-81
2023/10/02 06:30:17;;;;;;;18.63;7.63;;;;;;;;;;6245552;28;20514;-79
2023/10/02 06:33:21;;;;;;;13.98;6.70;;;;;;;;;;6246317;28;20042;-82
2023/10/02 06:36:24;;;;;;;15.98;7.78;;;;;;;;;;6247451;28;20525;-81
2023/10/02 06:39:26;;;;;;;15.45;7.80;;;;;;;;;;6250804;28;20049;-78
2023/10/02 06:42:28;;;;;;;14.95;6.70;;;;;;;;;;6255838;28;20646;-79
2023/10/02 06:45:32;;;;;;;17.00;7.15;;;;;;;;;;6241689;28;20049;-78
2023/10/02 06:48:35;;;;;;;12.30;6.25;;;;;;;;;;6257427;28;20502;-81
2023/10/02 06:51:37;;;;;;;16.15;6.85;;;;;;;;;;6254335;28;20079;-77
2023/10/02 06:54:45;;;;;;;14.30;7.55;;;;;;;;;;6246871;28;20060;-80
2023/10/02 06:57:50;;;;;;;11.98;6.22;;;;;;;;;;6272074;28;20041;-81
2023/10/02 07:00:54;;;;;;;11.20;5.68;;;;;;;;;;6278187;28;20045;-79
2023/10/02 07:04:08;;;;;;;10.27;5.85;;;;;;;;;;6276403;28;20391;-81
2023/10/02 07:07:12;;;;;;;12.30;6.05;;;;;;;;;;6269748;28;20045;-77
2023/10/02 07:10:14;;;;;;;14.18;6.22;;;;;;;;;;6268901;28;20049;-77
2023/10/02 07:13:20;;;;;;;13.23;6.45;;;;;;;;;;6269460;28;20040;-75
2023/10/02 07:16:22;;;;;;;10.95;5.70;;;;;;;;;;6264062;28;20041;-76
2023/10/02 07:19:38;;;;;;;12.40;6.07;;;;;;;;;;6275962;28;20075;-76
2023/10/02 07:22:40;;;;;;;9.65;5.20;;;;;;;;;;6260565;28;20040;-76
2023/10/02 07:25:50;;;;;;;7.95;4.60;;;;;;;;;;6261076;28;20494;-75
2023/10/02 07:28:52;;;;;;;7.63;4.45;;;;;;;;;;6268918;28;20102;-77
2023/10/02 07:31:53;;;;;;;8.48;4.43;;;;;;;;;;6280410;28;20048;-77
2023/10/02 07:35:09;;;;;;;7.15;4.03;;;;;;;;;;6269225;28;20040;-78
2023/10/02 07:38:11;;;;;;;10.00;4.50;;;;;;;;;;6273582;28;20126;-78
2023/10/02 07:41:25;;;;;;;7.90;4.90;;;;;;;;;;6257056;28;20048;-80
2023/10/02 07:44:36;;;;;;;12.38;7.18;;;;;;;;;;6276242;28;20043;-82
2023/10/02 07:47:55;;;;;;;16.15;10.70;;;;;;;;;;6278038;28;20036;-79
2023/10/02 07:50:59;;;;;;;16.80;10.07;;;;;;;;;;6275151;28;20055;-81
2023/10/02 07:54:01;;;;;;;15.45;9.15;;;;;;;;;;6276351;28;20036;-82
2023/10/02 07:57:04;;;;;;;11.30;7.47;;;;;;;;;;6264022;28;20036;-76
2023/10/02 08:00:41;;;;;;;11.75;8.18;;;;;;;;;;6276769;28;20052;-79
2023/10/02 08:03:49;;;;;;;11.35;6.72;;;;;;;;;;6281034;28;20086;-80
2023/10/02 08:06:54;;;;;;;12.20;6.40;;;;;;;;;;6263347;28;20110;-77
2023/10/02 08:10:16;;;;;;;11.77;6.28;;;;;;;;;;6272541;28;20056;-81
2023/10/02 08:13:32;;;;;;;11.02;6.38;;;;;;;;;;6272000;28;20041;-79
2023/10/02 08:16:58;;;;;;;12.60;6.18;;;;;;;;;;6277475;28;20098;-81
2023/10/02 08:19:59;;;;;;;11.55;6.05;;;;;;;;;;6270180;28;20056;-81
2023/10/02 08:23:08;;;;;;;;;;;;;;;;;;6272138;28;20041;-81
2023/10/02 08:26:14;;;;;;;11.68;6.30;;;;;;;;;;6280571;28;20110;-84
2023/10/02 08:29:29;;;;;;;12.20;6.82;;;;;;;;;;6275798;28;20057;-83
2023/10/02 08:32:31;;;;;;;15.75;6.88;;;;;;;;;;6276130;28;20048;-80
2023/10/02 08:35:34;;;;;;;12.57;6.85;;;;;;;;;;6276113;28;20821;-80
2023/10/02 08:38:36;;;;;;;16.80;7.45;;;;;;;;;;6275900;28;20116;-79
2023/10/02 08:41:44;;;;;;;12.95;6.93;;;;;;;;;;6279435;28;20418;-79
2023/10/02 08:44:47;;;;;;;14.73;7.80;;;;;;;;;;6278283;28;20119;-83
2023/10/02 08:47:49;;;;;;;15.55;7.18;;;;;;;;;;6268628;28;20150;-83
2023/10/02 08:50:57;;;;;;;19.63;7.57;;;;;;;;;;6269471;28;20037;-81
2023/10/02 08:54:00;;;;;;;17.23;7.53;;;;;;;;;;6270533;28;20422;-82
2023/10/02 08:57:08;;;;;;;12.90;6.97;;;;;;;;;;6275687;28;20037;-81
2023/10/02 09:00:13;;;;;;;12.50;6.90;;;;;;;;;;6258256;28;20041;-80
2023/10/02 09:03:18;;;;;;;15.30;7.40;;;;;;;;;;6275117;28;20072;-82
2023/10/02 09:06:28;;;;;;;15.82;7.13;;;;;;;;;;6267787;28;20047;-81
2023/10/02 09:09:36;;;;;;;12.80;6.45;;;;;;;;;;6274456;28;20132;-81
2023/10/02 09:12:48;;;;;;;12.82;6.07;;;;;;;;;;6274181;28;20524;-82
2023/10/02 09:15:53;;;;;;;15.45;6.85;;;;;;;;;;6269588;28;20065;-82
2023/10/02 09:19:08;;;;;;;13.07;7.10;;;;;;;;;;6274310;28;20032;-83
2023/10/02 09:22:17;;;;;;;11.90;6.78;;;;;;;;;;6274290;28;20049;-82
2023/10/02 09:25:26;;;;;;;15.05;7.00;;;;;;;;;;6280545;28;20054;-84
2023/10/02 09:28:41;;;;;;;12.00;6.20;;;;;;;;;;6276571;28;20493;-81
2023/10/02 09:31:46;;;;;;;13.23;6.55;;;;;;;;;;6272645;28;20505;-81
2023/10/02 09:35:10;;;;;;;14.63;6.43;;;;;;;;;;6274007;28;20117;-81
2023/10/02 09:38:32;;;;;;;11.18;6.07;;;;;;;;;;6259955;28;20053;-81
2023/10/02 09:41:36;;;;;;;;;;;;;;;;;;6266606;28;20514;-79
2023/10/02 09:44:41;;;;;;;16.48;8.52;;;;;;;;;;6279845;28;19920;-81
2023/10/02 09:47:43;;;;;;;12.75;6.50;;;;;;;;;;6279728;28;20051;-81
2023/10/02 09:51:10;;;;;;;13.73;7.05;;;;;;;;;;6265663;28;20504;-83
2023/10/02 09:54:32;;;;;;;11.93;6.38;;;;;;;;;;6267698;28;20049;-83
2023/10/02 09:57:37;;;;;;;15.80;6.90;;;;;;;;;;6273011;28;20052;-81
2023/10/02 10:01:34;;;;;;;14.38;7.07;;;;;;;;;;6270846;28;20048;-83
2023/10/02 10:11:18;;;;;;;14.60;7.55;;;;;;;;;;6264866;28;20425;-78
2023/10/02 10:14:40;;;;;;;14.43;7.55;;;;;;;;;;6279943;28;20431;-80
2023/10/02 10:17:55;;;;;;;16.05;7.63;;;;;;;;;;6269658;28;20056;-79
2023/10/02 10:28:05;;;;;;;13.68;7.03;;;;;;;;;;6267881;28;20422;-82
2023/10/02 10:31:08;;;;;;;15.50;6.90;;;;;;;;;;6265247;28;20068;-81
2023/10/02 10:35:12;;;;;;;16.15;7.82;;;;;;;;;;6267808;28;20060;-82
2023/10/02 10:38:21;;;;;;;14.73;7.05;;;;;;;;;;6273663;28;20049;-78
2023/10/02 10:41:31;;;;;;;14.70;7.57;;;;;;;;;;6266917;28;20065;-79
2023/10/02 10:44:43;;;;;;;13.15;6.68;;;;;;;;;;6271987;28;20136;-79
2023/10/02 10:47:45;;;;;;;15.50;7.53;;;;;;;;;;6273673;28;20044;-79
2023/10/02 10:50:57;;;;;;;;;;;;;;;;;;6280602;28;20044;-78
2023/10/02 10:54:30;;;;;;;13.15;6.80;;;;;;;;;;6265035;28;20400;-79
2023/10/02 10:57:52;;;;;;;14.15;7.22;;;;;;;;;;6268016;28;20040;-80
2023/10/02 11:00:54;;;;;;;15.27;7.57;;;;;;;;;;6265646;28;20448;-81
2023/10/02 11:04:02;;;;;;;13.88;6.95;;;;;;;;;;6264251;28;20118;-80
2023/10/02 11:07:19;;;;;;;15.73;7.65;;;;;;;;;;6269307;28;21078;-81
2023/10/02 11:10:25;;;;;;;14.50;7.03;;;;;;;;;;6271246;28;20566;-80
2023/10/02 11:13:50;;;;;;;14.27;7.30;;;;;;;;;;6247505;28;20056;-81
2023/10/02 11:16:54;;;;;;;14.20;6.88;;;;;;;;;;6272714;28;20340;-82
2023/10/02 11:19:57;;;;;;;14.23;7.20;;;;;;;;;;6269529;28;20053;-81
2023/10/02 11:23:03;;;;;;;15.00;6.80;;;;;;;;;;6264398;28;20048;-81
2023/10/02 11:26:11;;;;;;;19.90;7.53;;;;;;;;;;6270360;28;20478;-81
2023/10/02 11:29:22;;;;;;;13.75;7.50;;;;;;;;;;6270070;28;20044;-81
2023/10/02 11:32:24;;;;;;;14.57;7.50;;;;;;;;;;6263663;28;20053;-80
2023/10/02 11:35:28;;;;;;;;;;;;;;;;;;6261895;28;20075;-80
2023/10/02 11:38:31;;;;;;;15.57;7.60;;;;;;;;;;6255014;28;19968;-80
2023/10/02 11:41:33;;;;;;;15.00;7.40;;;;;;;;;;6272916;28;20053;-82
2023/10/02 11:44:39;;;;;;;15.23;7.50;;;;;;;;;;6269221;28;20044;-81
2023/10/02 11:47:41;;;;;;;14.82;7.00;;;;;;;;;;6274963;28;20040;-81
2023/10/02 11:50:43;;;;;;;13.77;6.88;;;;;;;;;;6277071;28;20056;-81
2023/10/02 11:53:45;;;;;;;14.35;7.28;;;;;;;;;;6250142;28;20048;-80
2023/10/02 11:56:47;;;;;;;14.75;6.95;;;;;;;;;;6267088;28;20052;-80
2023/10/02 11:59:50;;;;;;;14.93;8.05;;;;;;;;;;6272040;28;20498;-79
2023/10/02 12:02:52;;;;;;;13.75;7.20;;;;;;;;;;6265636;28;20041;-79
2023/10/02 12:05:54;;;;;;;16.00;8.02;;;;;;;;;;6280121;28;20057;-80
2023/10/02 12:08:57;;;;;;;14.02;7.50;;;;;;;;;;6268174;28;20051;-81
2023/10/02 12:12:00;;;;;;;15.82;7.57;;;;;;;;;;6275658;28;20171;-81
2023/10/02 12:15:02;;;;;;;14.30;7.20;;;;;;;;;;6247333;28;20072;-81
2023/10/02 12:18:04;;;;;;;14.32;7.43;;;;;;;;;;6248899;28;20047;-80
2023/10/02 12:21:11;;;;;;;14.10;7.40;;;;;;;;;;6265908;28;20037;-80
2023/10/02 12:24:14;;;;;;;16.63;7.68;;;;;;;;;;6268963;28;20146;-81
2023/10/02 12:27:17;;;;;;;13.85;7.43;;;;;;;;;;6269032;28;20503;-81
2023/10/02 12:30:19;;;;;;;14.50;7.78;;;;;;;;;;6271094;28;20039;-81
2023/10/02 12:33:21;;;;;;;14.88;7.10;;;;;;;;;;6258541;28;20414;-81
2023/10/02 12:36:23;;;;;;;14.63;7.40;;;;;;;;;;6268311;28;20048;-81
2023/10/02 12:39:28;;;;;;;14.82;7.72;;;;;;;;;;6265974;28;20059;-80
2023/10/02 12:42:31;;;;;;;15.00;7.18;;;;;;;;;;6264943;28;20124;-80
2023/10/02 12:45:35;;;;;;;15.55;7.20;;;;;;;;;;6273532;28;20045;-82
2023/10/02 12:48:37;;;;;;;13.75;7.03;;;;;;;;;;6271355;28;20033;-81
2023/10/02 12:51:43;;;;;;;12.63;6.65;;;;;;;;;;6276163;28;20127;-81
2023/10/02 12:54:48;;;;;;;14.50;6.97;;;;;;;;;;6278602;28;20109;-82
2023/10/02 12:57:49;;;;;;;15.23;7.25;;;;;;;;;;6258409;28;20040;-81
2023/10/02 13:00:52;;;;;;;13.50;7.00;;;;;;;;;;6267000;28;20044;-81
2023/10/02 13:03:54;;;;;;;15.45;7.05;;;;;;;;;;6271214;28;20453;-81
2023/10/02 13:06:57;;;;;;;12.32;6.70;;;;;;;;;;6267059;28;20056;-81
2023/10/02 13:09:58;;;;;;;14.23;7.40;;;;;;;;;;6274101;28;20041;-81
2023/10/02 13:13:00;;;;;;;12.95;6.40;;;;;;;;;;6273548;28;20060;-81
2023/10/02 13:16:02;;;;;;;14.85;6.88;;;;;;;;;;6273944;28;20446;-81
2023/10/02 13:19:09;;;;;;;10.80;6.75;;;;;;;;;;6267754;28;20045;-82
2023/10/02 13:22:10;;;;;;;11.80;6.38;;;;;;;;;;6266970;28;20041;-82
2023/10/02 13:25:13;;;;;;;12.70;7.20;;;;;;;;;;6273155;28;20090;-81
2023/10/02 13:28:16;;;;;;;13.27;6.55;;;;;;;;;;6264908;28;20056;-82
2023/10/02 13:31:19;;;;;;;13.20;7.00;;;;;;;;;;6269551;28;20056;-81
2023/10/02 13:34:21;;;;;;;13.68;6.97;;;;;;;;;;6255990;28;20041;-81
2023/10/02 13:37:22;;;;;;;;;;;;;;;;;;6272820;28;20032;-82
2023/10/02 13:40:31;;;;;;;14.93;6.85;;;;;;;;;;6269883;28;19925;-82
2023/10/02 13:43:37;;;;;;;13.27;6.80;;;;;;;;;;6269803;28;20425;-82
2023/10/02 13:46:38;;;;;;;12.23;6.63;;;;;;;;;;6272531;28;20506;-81
2023/10/02 13:49:41;;;;;;;10.43;6.40;;;;;;;;;;6273831;28;20126;-81
2023/10/02 13:52:44;;;;;;;12.27;6.68;;;;;;;;;;6262153;28;20092;-83
2023/10/02 13:55:46;;;;;;;13.10;6.32;;;;;;;;;;6281288;28;20110;-80
2023/10/02 13:58:48;;;;;;;;;;;;;;;;;;6281261;28;20056;-85
2023/10/02 14:01:50;;;;;;;11.70;6.68;;;;;;;;;;6278925;28;19927;-81
2023/10/02 14:04:52;;;;;;;12.27;6.57;;;;;;;;;;6274047;28;20052;-81
2023/10/02 14:07:54;;;;;;;11.10;6.43;;;;;;;;;;6279075;28;20049;-83
2023/10/02 14:10:56;;;;;;;15.45;7.07;;;;;;;;;;6286855;28;21059;-84
2023/10/02 14:13:58;;;;;;;11.93;6.75;;;;;;;;;;6259365;28;20132;-84
2023/10/02 14:17:00;;;;;;;;;;;;;;;;;;6261182;28;20049;-82
2023/10/02 14:20:04;;;;;;;12.52;6.80;;;;;;;;;;6278166;28;19974;-81
2023/10/02 14:23:06;;;;;;;12.35;6.53;;;;;;;;;;6280427;28;20049;-84
2023/10/02 14:26:14;;;;;;;13.90;6.72;;;;;;;;;;6286621;28;20036;-83
2023/10/02 14:29:15;;;;;;;13.45;7.00;;;;;;;;;;6285440;28;20108;-77
2023/10/02 14:32:19;;;;;;;11.68;6.57;;;;;;;;;;6284366;28;20525;-80
2023/10/02 14:35:20;;;;;;;13.63;6.63;;;;;;;;;;6281993;28;20041;-81
2023/10/02 14:38:23;;;;;;;;;;;;;;;;;;6292308;28;20052;-78
2023/10/02 14:41:28;;;;;;;12.45;6.63;;;;;;;;;;6279393;28;20010;-79
2023/10/02 14:44:30;;;;;;;10.60;6.50;;;;;;;;;;6267949;28;20049;-79
2023/10/02 14:47:32;;;;;;;11.85;6.78;;;;;;;;;;6267877;28;20052;-78
2023/10/02 14:50:35;;;;;;;11.80;6.35;;;;;;;;;;6263869;28;20033;-78
2023/10/02 14:53:37;;;;;;;12.38;6.10;;;;;;;;;;6268197;28;20557;-78
2023/10/02 14:56:39;;;;;;;13.65;6.40;;;;;;;;;;6269618;28;20079;-78
2023/10/02 14:59:41;;;;;;;15.07;6.93;;;;;;;;;;6279232;28;20049;-79
2023/10/02 15:02:43;;;;;;;14.85;6.95;;;;;;;;;;6267050;28;20045;-78
2023/10/02 15:05:45;;;;;;;;;;;;;;;;;;6269823;28;20075;-78
2023/10/02 15:08:47;;;;;;;11.35;6.30;;;;;;;;;;6268731;28;20406;-77
2023/10/02 15:11:49;;;;;;;11.52;6.75;;;;;;;;;;6266226;28;20427;-75
2023/10/02 15:14:51;;;;;;;12.90;6.78;;;;;;;;;;6262520;28;20079;-76
2023/10/02 15:17:53;;;;;;;13.45;6.93;;;;;;;;;;6254931;28;21393;-76
2023/10/02 15:20:55;;;;;;;11.75;6.20;;;;;;;;;;6257678;28;20044;-77
2023/10/02 15:23:58;;;;;;;;;;;;;;;;;;6266052;28;20066;-76
2023/10/02 15:27:01;;;;;;;10.95;6.18;;;;;;;;;;6266179;28;19925;-77
2023/10/02 15:30:04;;;;;;;13.73;7.57;;;;;;;;;;6266192;28;20051;-78
2023/10/02 15:33:05;;;;;;;10.88;6.43;;;;;;;;;;6265219;28;20052;-77
2023/10/02 15:36:08;;;;;;;12.55;6.75;;;;;;;;;;6261757;28;20040;-77
2023/10/02 15:39:13;;;;;;;12.15;6.53;;;;;;;;;;6267614;28;20045;-77
2023/10/02 15:42:16;;;;;;;12.20;7.00;;;;;;;;;;6268543;28;20044;-76
2023/10/02 15:45:19;;;;;;;14.13;7.32;;;;;;;;;;6274120;28;20302;-77
2023/10/02 15:48:22;;;;;;;13.02;8.02;;;;;;;;;;6275337;28;20056;-78
2023/10/02 15:51:24;;;;;;;13.02;7.13;;;;;;;;;;6264048;28;20045;-77
2023/10/02 15:54:29;;;;;;;14.48;7.90;;;;;;;;;;6277086;28;20447;-77
2023/10/02 15:57:31;;;;;;;15.40;7.68;;;;;;;;;;6265134;28;20063;-76
2023/10/02 16:00:33;;;;;;;14.02;7.40;;;;;;;;;;6266205;28;20075;-77
2023/10/02 16:03:34;;;;;;;12.67;7.10;;;;;;;;;;6263858;28;21197;-77
2023/10/02 16:06:38;;;;;;;15.32;7.82;;;;;;;;;;6269869;28;20040;-77
2023/10/02 16:10:03;;;;;;;14.02;7.53;;;;;;;;;;6267765;28;20123;-77
2023/10/02 16:13:05;;;;;;;14.57;7.18;;;;;;;;;;6266685;28;20049;-76
2023/10/02 16:16:12;;;;;;;13.63;7.30;;;;;;;;;;6265145;28;20049;-77
2023/10/02 16:19:15;;;;;;;13.13;7.43;;;;;;;;;;6269485;28;20476;-75
2023/10/02 16:22:16;;;;;;;;;;;;;;;;;;6269862;28;20489;-78
2023/10/02 16:25:19;;;;;;;14.07;6.93;;;;;;;;;;6286159;28;19932;-80
2023/10/02 16:28:21;;;;;;;13.27;6.50;;;;;;;;;;6278215;28;20124;-78
2023/10/02 16:31:25;;;;;;;17.80;8.05;;;;;;;;;;6273612;28;20410;-79
2023/10/02 16:34:27;;;;;;;13.38;7.18;;;;;;;;;;6279383;28;20055;-79
2023/10/02 16:37:29;;;;;;;14.53;7.47;;;;;;;;;;6263637;28;20052;-79
2023/10/02 16:40:32;;;;;;;14.77;7.53;;;;;;;;;;6288167;28;20506;-78
2023/10/02 16:43:35;;;;;;;15.48;7.32;;;;;;;;;;6279612;28;20563;-77
2023/10/02 16:46:37;;;;;;;16.57;7.47;;;;;;;;;;6274569;28;20056;-78
2023/10/02 16:49:44;;;;;;;15.07;7.10;;;;;;;;;;6276693;28;20048;-79
2023/10/02 16:52:47;;;;;;;15.50;7.63;;;;;;;;;;6275233;28;20044;-79
2023/10/02 16:55:58;;;;;;;14.55;7.70;;;;;;;;;;6264893;28;20044;-78
2023/10/02 16:59:01;;;;;;;14.13;8.57;;;;;;;;;;6277278;28;20044;-79
2023/10/02 17:02:04;;;;;;;16.02;8.43;;;;;;;;;;6272551;28;20542;-77
2023/10/02 17:05:07;;;;;;;16.00;10.02;;;;;;;;;;6260141;28;20502;-79
2023/10/02 17:08:09;;;;;;;13.73;7.93;;;;;;;;;;6257028;28;20051;-76
2023/10/02 17:11:18;;;;;;;17.90;9.67;;;;;;;;;;6282647;28;20053;-79
2023/10/02 17:14:19;;;;;;;18.92;10.07;;;;;;;;;;6272414;28;20520;-76
2023/10/02 17:17:21;;;;;;;20.55;9.73;;;;;;;;;;6263882;28;20037;-79
2023/10/02 17:20:25;;;;;;;16.65;7.28;;;;;;;;;;6274754;28;20048;-76
2023/10/02 17:23:29;;;;;;;13.05;7.85;;;;;;;;;;6282596;28;20110;-81
2023/10/02 17:26:34;;;;;;;16.70;7.63;;;;;;;;;;6275083;28;20464;-79
2023/10/02 17:29:36;;;;;;;12.80;6.85;;;;;;;;;;6245211;28;20121;-77
2023/10/02 17:32:38;;;;;;;16.88;7.32;;;;;;;;;;6271973;28;20053;-76
2023/10/02 17:35:40;;;;;;;15.63;7.22;;;;;;;;;;6278183;28;20048;-77
2023/10/02 17:38:42;;;;;;;14.63;7.25;;;;;;;;;;6254644;28;20041;-80
2023/10/02 17:41:45;;;;;;;14.07;7.57;;;;;;;;;;6252156;28;20120;-77
2023/10/02 17:44:49;;;;;;;16.92;6.95;;;;;;;;;;6257336;28;20045;-77
2023/10/02 17:47:51;;;;;;;14.52;6.57;;;;;;;;;;6276111;28;20064;-80
2023/10/02 17:50:53;;;;;;;12.93;6.60;;;;;;;;;;6274710;28;20043;-77
2023/10/02 17:53:57;;;;;;;13.48;6.40;;;;;;;;;;6281628;28;20465;-79
2023/10/02 17:56:58;;;;;;;18.88;10.00;;;;;;;;;;6267116;28;20040;-79
2023/10/02 18:00:00;;;;;;;18.90;12.93;;;;;;;;;;6269273;28;20087;-78
2023/10/02 18:03:13;;;;;;;14.30;8.13;;;;;;;;;;6281234;28;20116;-77
2023/10/02 18:06:16;;;;;;;14.27;7.28;;;;;;;;;;6276531;28;20108;-78
2023/10/02 18:09:18;;;;;;;16.35;7.55;;;;;;;;;;6289073;28;20063;-78
2023/10/02 18:12:19;;;;;;;17.02;8.73;;;;;;;;;;6271765;28;20055;-77
2023/10/02 18:15:21;;;;;;;12.48;6.35;;;;;;;;;;6275816;28;20056;-79
2023/10/02 18:18:23;;;;;;;16.55;7.10;;;;;;;;;;6260254;28;20050;-78
2023/10/02 18:21:25;;;;;;;13.63;6.75;;;;;;;;;;6275510;28;20150;-77
2023/10/02 18:24:27;;;;;;;14.13;6.63;;;;;;;;;;6269156;28;20053;-76
2023/10/02 18:27:30;;;;;;;13.13;6.25;;;;;;;;;;6275005;28;20048;-79
2023/10/02 18:30:34;;;;;;;15.52;7.03;;;;;;;;;;6269024;28;20074;-75
2023/10/02 18:33:35;;;;;;;11.85;6.32;;;;;;;;;;6267217;28;20053;-76
2023/10/02 18:36:37;;;;;;;15.27;6.47;;;;;;;;;;6272285;28;20052;-78
2023/10/02 18:39:39;;;;;;;13.73;7.30;;;;;;;;;;6278761;28;20441;-77
2023/10/02 18:42:41;;;;;;;14.27;6.90;;;;;;;;;;6274679;28;20130;-77
2023/10/02 18:45:44;;;;;;;12.93;6.68;;;;;;;;;;6279369;28;20052;-79